Time;durP1;ratioP1;P1;durP2;ratioP2;P2;SDS_P1;SDS_P2;PMS_P1;PMS_P2;Temp;Humidity;BMP_temperature;BMP_pressure;BME280_temperature;BME280_humidity;BME280_pressure;Samples;Min_cycle;Max_cycle;Signal;HPM_P1;HPM_P2
2024/03/30 00:01:19;;;;;;;;;;;20.30;50.00;;;;;;1518040;76;812;-72
2024/03/30 00:03:22;;;;;;;;;;;20.50;50.10;;;;;;1520172;77;731;-70
2024/03/30 00:05:24;;;;;;;;;;;20.40;50.00;;;;;;1519420;76;1254;-70
2024/03/30 00:07:26;;;;;;;;;;;20.40;50.00;;;;;;1509652;76;690;-71
2024/03/30 00:09:28;;;;;;;;;;;20.40;50.00;;;;;;1524008;76;684;-70
2024/03/30 00:11:31;;;;;;;;;;;20.40;50.00;;;;;;1524654;76;1926;-70
2024/03/30 00:13:33;;;;;;;;;;;20.40;50.00;;;;;;1515880;76;1517;-71
2024/03/30 00:15:35;;;;;;;;;;;20.40;50.00;;;;;;1524158;76;1198;-70
2024/03/30 00:17:39;;;;;;;;;;;20.40;50.00;;;;;;1521676;76;735;-71
2024/03/30 00:19:40;;;;;;;;;;;20.40;50.10;;;;;;1519619;76;1640;-70
2024/03/30 00:21:42;;;;;;;;;;;20.30;50.00;;;;;;1518870;76;715;-72
2024/03/30 00:23:44;;;;;;;;;;;20.40;50.10;;;;;;1515555;76;764;-69
2024/03/30 00:25:53;;;;;;;;;;;20.30;50.10;;;;;;1521560;76;1157;-70
2024/03/30 00:27:55;;;;;;;;;;;20.40;50.10;;;;;;1521664;76;1550;-69
2024/03/30 00:29:56;;;;;;;;;;;20.40;50.10;;;;;;1516723;76;695;-71
2024/03/30 00:31:58;;;;;;;;;;;20.40;50.10;;;;;;1513115;76;1943;-70
2024/03/30 00:34:00;;;;;;;;;;;20.40;50.10;;;;;;1523116;76;809;-71
2024/03/30 00:36:02;;;;;;;;;;;20.30;50.10;;;;;;1520123;76;1155;-71
2024/03/30 00:38:04;;;;;;;;;;;20.40;50.10;;;;;;1522071;76;762;-68
2024/03/30 00:40:06;;;;;;;;;;;20.40;50.10;;;;;;1512596;77;967;-71
2024/03/30 00:42:08;;;;;;;;;;;20.40;50.10;;;;;;1524233;76;1476;-69
2024/03/30 00:44:10;;;;;;;;;;;20.30;50.10;;;;;;1520060;77;766;-71
2024/03/30 00:46:12;;;;;;;;;;;20.40;50.10;;;;;;1518379;76;1159;-70
2024/03/30 00:48:14;;;;;;;;;;;20.40;50.10;;;;;;1520980;78;645;-70
2024/03/30 00:50:16;;;;;;;;;;;20.40;50.10;;;;;;1512448;76;733;-72
2024/03/30 00:52:17;;;;;;;;;;;20.40;50.10;;;;;;1528944;76;1938;-72
2024/03/30 00:54:19;;;;;;;;;;;20.40;50.10;;;;;;1524909;76;776;-71
2024/03/30 00:56:21;;;;;;;;;;;20.40;50.10;;;;;;1508210;77;1445;-72
2024/03/30 00:58:23;;;;;;;;;;;20.30;50.20;;;;;;1509210;77;716;-73
2024/03/30 01:00:27;;;;;;;;;;;20.40;50.20;;;;;;1517995;76;817;-71
2024/03/30 01:02:28;;;;;;;;;;;20.30;50.20;;;;;;1514803;76;834;-72
2024/03/30 01:04:30;;;;;;;;;;;20.40;50.20;;;;;;1525362;76;676;-72
2024/03/30 01:06:32;;;;;;;;;;;20.40;50.20;;;;;;1522579;76;1143;-72
2024/03/30 01:08:34;;;;;;;;;;;20.30;50.20;;;;;;1526071;76;1598;-70
2024/03/30 01:10:36;;;;;;;;;;;20.30;50.20;;;;;;1510883;76;1934;-72
2024/03/30 01:12:38;;;;;;;;;;;20.40;50.30;;;;;;1518120;76;607;-73
2024/03/30 01:14:40;;;;;;;;;;;20.30;50.20;;;;;;1515318;77;664;-74
2024/03/30 01:16:42;;;;;;;;;;;20.40;50.30;;;;;;1526005;76;1186;-72
2024/03/30 01:18:44;;;;;;;;;;;20.40;50.30;;;;;;1527571;76;684;-71
2024/03/30 01:20:46;;;;;;;;;;;20.40;50.20;;;;;;1522647;76;755;-71
2024/03/30 01:22:48;;;;;;;;;;;20.40;50.30;;;;;;1511598;76;1514;-71
2024/03/30 01:24:50;;;;;;;;;;;20.30;50.30;;;;;;1523040;77;694;-71
2024/03/30 01:26:52;;;;;;;;;;;20.40;50.30;;;;;;1532946;75;1156;-71
2024/03/30 01:28:54;;;;;;;;;;;20.40;50.30;;;;;;1519608;76;669;-71
2024/03/30 01:30:56;;;;;;;;;;;20.30;50.30;;;;;;1525775;76;1935;-71
2024/03/30 01:32:58;;;;;;;;;;;20.40;50.40;;;;;;1522970;76;736;-72
2024/03/30 01:35:00;;;;;;;;;;;20.30;50.30;;;;;;1537409;76;675;-72
2024/03/30 01:37:02;;;;;;;;;;;20.40;50.40;;;;;;1524200;77;1395;-71
2024/03/30 01:39:04;;;;;;;;;;;20.30;50.40;;;;;;1511045;76;744;-73
2024/03/30 01:41:06;;;;;;;;;;;20.40;50.40;;;;;;1518514;76;666;-71
2024/03/30 01:43:08;;;;;;;;;;;20.40;50.40;;;;;;1521661;77;893;-71
2024/03/30 01:45:10;;;;;;;;;;;20.40;50.40;;;;;;1523609;76;771;-73
2024/03/30 01:47:11;;;;;;;;;;;20.30;50.40;;;;;;1520885;76;1114;-73
2024/03/30 01:49:13;;;;;;;;;;;20.40;50.40;;;;;;1522785;76;737;-72
2024/03/30 01:51:15;;;;;;;;;;;20.40;50.40;;;;;;1526149;76;1933;-72
2024/03/30 01:53:19;;;;;;;;;;;20.40;50.40;;;;;;1525217;76;792;-73
2024/03/30 01:55:21;;;;;;;;;;;20.50;50.50;;;;;;1526541;76;1023;-72
2024/03/30 01:57:22;;;;;;;;;;;20.40;50.50;;;;;;1519930;76;1140;-73
2024/03/30 01:59:24;;;;;;;;;;;20.30;50.40;;;;;;1524450;77;672;-72
2024/03/30 02:01:26;;;;;;;;;;;20.30;50.50;;;;;;1519994;76;779;-73
2024/03/30 02:03:28;;;;;;;;;;;20.30;50.50;;;;;;1524386;76;782;-72
2024/03/30 02:05:31;;;;;;;;;;;20.30;50.50;;;;;;1517351;77;1494;-72
2024/03/30 02:07:33;;;;;;;;;;;20.30;50.50;;;;;;1492642;78;655;-72
2024/03/30 02:09:35;;;;;;;;;;;20.30;50.50;;;;;;1512147;76;675;-72
2024/03/30 02:11:39;;;;;;;;;;;20.40;50.50;;;;;;1513527;76;1902;-71
2024/03/30 02:13:41;;;;;;;;;;;20.30;50.50;;;;;;1524461;76;1123;-70
2024/03/30 02:15:43;;;;;;;;;;;20.30;50.50;;;;;;1522016;76;1224;-72
2024/03/30 02:17:45;;;;;;;;;;;20.30;50.40;;;;;;1512224;76;794;-72
2024/03/30 02:19:47;;;;;;;;;;;20.30;50.50;;;;;;1518251;76;1526;-73
2024/03/30 02:21:49;;;;;;;;;;;20.40;50.40;;;;;;1512150;76;733;-71
2024/03/30 02:23:51;;;;;;;;;;;20.30;50.50;;;;;;1511128;76;746;-71
2024/03/30 02:25:52;;;;;;;;;;;20.30;50.50;;;;;;1522337;76;1148;-70
2024/03/30 02:27:54;;;;;;;;;;;20.30;50.50;;;;;;1525637;76;809;-71
2024/03/30 02:29:57;;;;;;;;;;;20.40;50.50;;;;;;1517556;76;667;-71
2024/03/30 02:31:59;;;;;;;;;;;20.30;50.50;;;;;;1519129;76;1949;-71
2024/03/30 02:34:00;;;;;;;;;;;20.30;50.50;;;;;;1520019;76;1548;-71
2024/03/30 02:36:02;;;;;;;;;;;20.30;50.50;;;;;;1518054;76;1139;-72
2024/03/30 02:38:04;;;;;;;;;;;20.30;50.50;;;;;;1531866;76;771;-72
2024/03/30 02:40:07;;;;;;;;;;;20.30;50.50;;;;;;1518433;76;728;-73
2024/03/30 02:42:09;;;;;;;;;;;20.30;50.50;;;;;;1521811;76;687;-72
2024/03/30 02:44:11;;;;;;;;;;;20.30;50.50;;;;;;1522406;76;793;-71
2024/03/30 02:46:13;;;;;;;;;;;20.30;50.50;;;;;;1520537;76;1162;-73
2024/03/30 02:48:15;;;;;;;;;;;20.30;50.50;;;;;;1530191;76;1556;-72
2024/03/30 02:50:17;;;;;;;;;;;20.40;50.50;;;;;;1519478;76;746;-72
2024/03/30 02:52:19;;;;;;;;;;;20.30;50.50;;;;;;1530538;76;1934;-73
2024/03/30 02:54:21;;;;;;;;;;;20.40;50.50;;;;;;1529721;76;802;-72
2024/03/30 02:56:23;;;;;;;;;;;20.40;50.50;;;;;;1511326;76;1152;-71
2024/03/30 02:58:24;;;;;;;;;;;20.40;50.50;;;;;;1525388;76;859;-70
2024/03/30 03:00:26;;;;;;;;;;;20.30;50.50;;;;;;1527017;76;752;-72
2024/03/30 03:02:28;;;;;;;;;;;20.40;50.50;;;;;;1529048;76;1549;-71
2024/03/30 03:04:30;;;;;;;;;;;20.40;50.50;;;;;;1510810;78;869;-73
2024/03/30 03:06:32;;;;;;;;;;;20.40;50.50;;;;;;1516018;77;1138;-71
2024/03/30 03:08:35;;;;;;;;;;;20.30;50.50;;;;;;1523299;77;739;-71
2024/03/30 03:10:36;;;;;;;;;;;20.30;50.50;;;;;;1521405;76;717;-73
2024/03/30 03:12:38;;;;;;;;;;;20.40;50.60;;;;;;1527188;76;1946;-71
2024/03/30 03:14:40;;;;;;;;;;;20.40;50.60;;;;;;1522449;76;762;-71
2024/03/30 03:16:42;;;;;;;;;;;20.30;50.60;;;;;;1525196;76;1361;-70
2024/03/30 03:18:44;;;;;;;;;;;20.30;50.60;;;;;;1517447;76;783;-70
2024/03/30 03:20:46;;;;;;;;;;;20.40;50.60;;;;;;1524383;76;703;-70
2024/03/30 03:22:48;;;;;;;;;;;20.40;50.60;;;;;;1524221;76;640;-72
2024/03/30 03:24:50;;;;;;;;;;;20.40;50.60;;;;;;1514917;76;734;-73
2024/03/30 03:26:51;;;;;;;;;;;20.40;50.60;;;;;;1524215;76;1508;-72
2024/03/30 03:28:53;;;;;;;;;;;20.40;50.60;;;;;;1517797;76;718;-72
2024/03/30 03:30:55;;;;;;;;;;;20.30;50.60;;;;;;1525764;76;1484;-71
2024/03/30 03:32:57;;;;;;;;;;;20.30;50.60;;;;;;1511711;76;1924;-71
2024/03/30 03:34:59;;;;;;;;;;;20.30;50.70;;;;;;1514634;76;694;-71
2024/03/30 03:37:01;;;;;;;;;;;20.40;50.60;;;;;;1522651;76;1141;-72
2024/03/30 03:39:03;;;;;;;;;;;20.30;50.60;;;;;;1518904;77;818;-73
2024/03/30 03:41:05;;;;;;;;;;;20.40;50.60;;;;;;1523413;76;812;-73
2024/03/30 03:43:07;;;;;;;;;;;20.40;50.60;;;;;;1520625;77;649;-71
2024/03/30 03:45:09;;;;;;;;;;;20.30;50.70;;;;;;1520021;76;1591;-73
2024/03/30 03:47:10;;;;;;;;;;;20.40;50.60;;;;;;1523320;76;1128;-74
2024/03/30 03:49:12;;;;;;;;;;;20.40;50.70;;;;;;1520004;76;642;-71
2024/03/30 03:51:15;;;;;;;;;;;20.30;50.70;;;;;;1517308;76;715;-71
2024/03/30 03:53:17;;;;;;;;;;;20.40;50.70;;;;;;1517668;76;1914;-71
2024/03/30 03:55:19;;;;;;;;;;;20.40;50.70;;;;;;1520724;76;711;-72
2024/03/30 03:57:21;;;;;;;;;;;20.40;50.70;;;;;;1514709;76;1467;-71
2024/03/30 03:59:23;;;;;;;;;;;20.30;50.70;;;;;;1514471;77;606;-71
2024/03/30 04:01:24;;;;;;;;;;;20.30;50.70;;;;;;1516859;76;626;-71
2024/03/30 04:03:26;;;;;;;;;;;20.40;50.70;;;;;;1517098;76;742;-71
2024/03/30 04:05:28;;;;;;;;;;;20.30;50.70;;;;;;1518642;76;1096;-73
2024/03/30 04:07:30;;;;;;;;;;;20.40;50.60;;;;;;1522529;76;650;-73
2024/03/30 04:09:32;;;;;;;;;;;20.40;50.70;;;;;;1521546;76;774;-72
2024/03/30 04:11:34;;;;;;;;;;;20.40;50.60;;;;;;1526132;76;1566;-72
2024/03/30 04:13:36;;;;;;;;;;;20.30;50.60;;;;;;1523839;76;1948;-71
2024/03/30 04:15:39;;;;;;;;;;;20.40;50.70;;;;;;1527736;76;1125;-72
2024/03/30 04:17:41;;;;;;;;;;;20.40;50.60;;;;;;1509668;76;798;-70
2024/03/30 04:19:43;;;;;;;;;;;20.40;50.60;;;;;;1514241;76;773;-72
2024/03/30 04:21:45;;;;;;;;;;;20.40;50.60;;;;;;1523036;78;655;-71
2024/03/30 04:23:49;;;;;;;;;;;20.40;50.60;;;;;;1522278;76;667;-70
2024/03/30 04:25:52;;;;;;;;;;;20.30;50.70;;;;;;1524063;76;1467;-73
2024/03/30 04:27:54;;;;;;;;;;;20.50;50.70;;;;;;1507551;78;1624;-73
2024/03/30 04:29:57;;;;;;;;;;;20.40;50.60;;;;;;1518053;76;687;-75
2024/03/30 04:31:59;;;;;;;;;;;20.40;50.60;;;;;;1518806;76;1909;-73
2024/03/30 04:34:00;;;;;;;;;;;20.40;50.60;;;;;;1523839;76;746;-74
2024/03/30 04:36:04;;;;;;;;;;;20.40;50.70;;;;;;1529984;76;1148;-74
2024/03/30 04:38:06;;;;;;;;;;;20.30;50.70;;;;;;1527347;76;1083;-76
2024/03/30 04:40:08;;;;;;;;;;;20.40;50.70;;;;;;1522498;76;1319;-73
2024/03/30 04:42:10;;;;;;;;;;;20.40;50.60;;;;;;1514470;76;623;-72
2024/03/30 04:44:12;;;;;;;;;;;20.40;50.70;;;;;;1522795;76;703;-74
2024/03/30 04:46:14;;;;;;;;;;;20.30;50.60;;;;;;1510058;76;1186;-73
2024/03/30 04:48:17;;;;;;;;;;;20.30;50.60;;;;;;1526708;76;579;-73
2024/03/30 04:50:19;;;;;;;;;;;20.40;50.70;;;;;;1540656;76;937;-72
2024/03/30 04:52:21;;;;;;;;;;;20.40;50.60;;;;;;1528123;76;1939;-73
2024/03/30 04:54:23;;;;;;;;;;;20.40;50.60;;;;;;1516867;76;1490;-76
2024/03/30 04:56:25;;;;;;;;;;;20.40;50.60;;;;;;1511618;77;1165;-73
2024/03/30 04:58:27;;;;;;;;;;;20.40;50.70;;;;;;1523620;76;727;-73
2024/03/30 05:00:29;;;;;;;;;;;20.40;50.70;;;;;;1522997;77;709;-74
2024/03/30 05:02:31;;;;;;;;;;;20.40;50.70;;;;;;1522475;76;656;-73
2024/03/30 05:04:33;;;;;;;;;;;20.40;50.60;;;;;;1524882;76;724;-74
2024/03/30 05:06:35;;;;;;;;;;;20.40;50.60;;;;;;1517627;76;1145;-73
2024/03/30 05:08:37;;;;;;;;;;;20.40;50.60;;;;;;1521199;76;1323;-74
2024/03/30 05:10:39;;;;;;;;;;;20.50;50.70;;;;;;1515885;77;758;-74
2024/03/30 05:12:41;;;;;;;;;;;20.40;50.60;;;;;;1529894;76;1933;-73
2024/03/30 05:14:43;;;;;;;;;;;20.40;50.70;;;;;;1535273;76;729;-71
2024/03/30 05:16:44;;;;;;;;;;;20.30;50.70;;;;;;1526016;76;1162;-74
2024/03/30 05:18:46;;;;;;;;;;;20.30;50.70;;;;;;1522636;78;716;-71
2024/03/30 05:20:57;;;;;;;;;;;20.40;50.70;;;;;;1525355;76;937;-73
2024/03/30 05:22:59;;;;;;;;;;;20.30;50.70;;;;;;1520491;76;1577;-73
2024/03/30 05:25:01;;;;;;;;;;;20.30;50.70;;;;;;1531685;76;766;-74
2024/03/30 05:27:02;;;;;;;;;;;20.40;50.70;;;;;;1514782;76;1172;-72
2024/03/30 05:29:04;;;;;;;;;;;20.30;50.70;;;;;;1528024;76;767;-73
2024/03/30 05:31:07;;;;;;;;;;;20.40;50.60;;;;;;1521177;77;736;-74
2024/03/30 05:33:10;;;;;;;;;;;20.40;50.70;;;;;;1520322;76;1926;-72
2024/03/30 05:35:12;;;;;;;;;;;20.40;50.60;;;;;;1528234;76;740;-72
2024/03/30 05:37:14;;;;;;;;;;;20.40;50.60;;;;;;1519341;76;1449;-72
2024/03/30 05:39:16;;;;;;;;;;;20.40;50.70;;;;;;1530366;76;767;-69
2024/03/30 05:41:18;;;;;;;;;;;20.40;50.70;;;;;;1523413;76;644;-71
2024/03/30 05:43:20;;;;;;;;;;;20.40;50.60;;;;;;1523122;76;813;-72
2024/03/30 05:45:22;;;;;;;;;;;20.50;50.70;;;;;;1522645;77;669;-71
2024/03/30 05:47:24;;;;;;;;;;;20.50;50.70;;;;;;1513700;76;1181;-72
2024/03/30 05:49:25;;;;;;;;;;;20.40;50.70;;;;;;1518030;76;757;-72
2024/03/30 05:51:27;;;;;;;;;;;19.50;50.20;;;;;;1523840;77;1317;-73
2024/03/30 05:53:29;;;;;;;;;;;20.30;50.70;;;;;;1522329;76;1954;-71
2024/03/30 05:55:31;;;;;;;;;;;20.50;50.80;;;;;;1513342;77;1119;-71
2024/03/30 05:57:33;;;;;;;;;;;20.40;50.70;;;;;;1518150;78;903;-71
2024/03/30 05:59:35;;;;;;;;;;;20.40;50.70;;;;;;1529500;76;780;-72
2024/03/30 06:01:37;;;;;;;;;;;20.40;50.70;;;;;;1512331;76;833;-72
2024/03/30 06:03:39;;;;;;;;;;;20.40;50.70;;;;;;1516325;76;788;-73
2024/03/30 06:05:40;;;;;;;;;;;20.40;50.70;;;;;;1506851;76;1463;-71
2024/03/30 06:07:42;;;;;;;;;;;20.40;50.70;;;;;;1537102;76;751;-68
2024/03/30 06:09:44;;;;;;;;;;;20.50;50.80;;;;;;1519630;77;770;-68
2024/03/30 06:11:46;;;;;;;;;;;20.40;50.70;;;;;;1512954;76;766;-69
2024/03/30 06:13:48;;;;;;;;;;;20.40;50.70;;;;;;1520515;76;1941;-70
2024/03/30 06:15:50;;;;;;;;;;;20.40;50.80;;;;;;1513903;77;1202;-70
2024/03/30 06:17:52;;;;;;;;;;;20.50;50.80;;;;;;1526791;77;730;-70
2024/03/30 06:19:54;;;;;;;;;;;20.40;50.70;;;;;;1517161;77;1663;-71
2024/03/30 06:21:56;;;;;;;;;;;20.40;50.80;;;;;;1512032;76;692;-69
2024/03/30 06:23:58;;;;;;;;;;;20.40;50.70;;;;;;1521280;76;621;-72
2024/03/30 06:26:00;;;;;;;;;;;20.50;50.90;;;;;;1521822;76;1166;-72
2024/03/30 06:28:02;;;;;;;;;;;20.40;50.70;;;;;;1524337;76;739;-72
2024/03/30 06:30:04;;;;;;;;;;;20.40;50.70;;;;;;1525280;76;767;-69
2024/03/30 06:32:06;;;;;;;;;;;20.40;50.80;;;;;;1520507;76;1541;-70
2024/03/30 06:34:08;;;;;;;;;;;20.40;50.80;;;;;;1520828;77;1922;-71
2024/03/30 06:36:10;;;;;;;;;;;20.40;50.80;;;;;;1522436;76;1158;-71
2024/03/30 06:38:12;;;;;;;;;;;20.40;50.80;;;;;;1517835;77;771;-73
2024/03/30 06:44:53;;;;;;;;;;;20.40;50.80;;;;;;1520517;76;1617;-72
2024/03/30 06:46:55;;;;;;;;;;;20.40;50.90;;;;;;1523117;76;1527;-70
2024/03/30 06:48:56;;;;;;;;;;;20.40;50.80;;;;;;1519396;76;657;-71
2024/03/30 06:50:58;;;;;;;;;;;20.40;50.90;;;;;;1518682;77;682;-70
2024/03/30 06:53:00;;;;;;;;;;;20.40;50.90;;;;;;1526929;76;1932;-72
2024/03/30 06:55:02;;;;;;;;;;;20.40;50.90;;;;;;1520344;76;665;-71
2024/03/30 06:57:04;;;;;;;;;;;20.50;51.00;;;;;;1523673;76;1134;-73
2024/03/30 06:59:06;;;;;;;;;;;20.40;50.90;;;;;;1524983;76;739;-71
2024/03/30 07:01:09;;;;;;;;;;;20.40;50.90;;;;;;1524949;76;1371;-71
2024/03/30 07:03:11;;;;;;;;;;;20.40;51.00;;;;;;1524167;76;705;-72
2024/03/30 07:05:13;;;;;;;;;;;20.40;50.90;;;;;;1523202;77;973;-72
2024/03/30 07:07:15;;;;;;;;;;;20.40;51.00;;;;;;1523162;76;1059;-68
2024/03/30 07:09:16;;;;;;;;;;;20.40;51.00;;;;;;1523360;77;755;-71
2024/03/30 07:11:21;;;;;;;;;;;20.60;51.00;;;;;;1524181;76;758;-69
2024/03/30 07:13:23;;;;;;;;;;;20.30;51.00;;;;;;1521492;76;1901;-69
2024/03/30 07:15:25;;;;;;;;;;;20.50;51.10;;;;;;1519699;76;1602;-68
2024/03/30 07:17:28;;;;;;;;;;;20.40;51.00;;;;;;1523201;77;692;-69
2024/03/30 07:19:29;;;;;;;;;;;20.40;51.00;;;;;;1522373;78;795;-67
2024/03/30 07:21:31;;;;;;;;;;;20.40;51.00;;;;;;1521377;76;811;-68
2024/03/30 07:23:33;;;;;;;;;;;20.40;51.00;;;;;;1524855;76;743;-71
2024/03/30 07:25:38;;;;;;;;;;;20.40;51.00;;;;;;1524198;76;1154;-69
2024/03/30 07:27:40;;;;;;;;;;;20.40;51.00;;;;;;1512126;77;809;-71
2024/03/30 07:29:42;;;;;;;;;;;20.40;51.00;;;;;;1519591;76;1617;-70
2024/03/30 07:31:44;;;;;;;;;;;20.40;51.00;;;;;;1513651;76;676;-68
2024/03/30 07:33:46;;;;;;;;;;;20.40;51.10;;;;;;1523619;76;1912;-69
2024/03/30 07:35:54;;;;;;;;;;;20.40;51.00;;;;;;1518376;77;1103;-69
2024/03/30 07:37:56;;;;;;;;;;;20.40;51.00;;;;;;1520240;76;647;-72
2024/03/30 07:39:58;;;;;;;;;;;20.40;51.10;;;;;;1520439;76;702;-71
2024/03/30 07:42:00;;;;;;;;;;;20.40;51.00;;;;;;1517747;76;765;-70
2024/03/30 07:44:02;;;;;;;;;;;20.40;51.10;;;;;;1519049;76;1576;-70
2024/03/30 07:46:05;;;;;;;;;;;20.40;51.10;;;;;;1520926;76;1096;-73
2024/03/30 07:48:06;;;;;;;;;;;20.40;51.10;;;;;;1525092;76;718;-70
2024/03/30 07:50:08;;;;;;;;;;;20.40;51.10;;;;;;1518046;76;758;-70
2024/03/30 07:52:11;;;;;;;;;;;20.40;51.20;;;;;;1522297;76;724;-70
2024/03/30 07:54:13;;;;;;;;;;;20.40;51.40;;;;;;1519226;76;1917;-74
2024/03/30 07:56:15;;;;;;;;;;;20.40;51.30;;;;;;1523163;76;1097;-72
2024/03/30 07:58:17;;;;;;;;;;;20.40;51.30;;;;;;1513734;76;1686;-73
2024/03/30 08:00:19;;;;;;;;;;;20.50;51.40;;;;;;1523649;76;718;-71
2024/03/30 08:02:21;;;;;;;;;;;20.40;51.30;;;;;;1528724;76;669;-70
2024/03/30 08:04:22;;;;;;;;;;;20.40;51.10;;;;;;1520571;76;740;-70
2024/03/30 08:06:24;;;;;;;;;;;20.40;50.50;;;;;;1526312;76;1127;-71
2024/03/30 08:08:26;;;;;;;;;;;20.40;50.10;;;;;;1524924;76;620;-69
2024/03/30 08:10:28;;;;;;;;;;;20.40;49.70;;;;;;1532755;76;1305;-70
2024/03/30 08:12:30;;;;;;;;;;;20.40;48.90;;;;;;1527956;76;671;-69
2024/03/30 08:14:32;;;;;;;;;;;20.30;48.80;;;;;;1523859;76;1947;-70
2024/03/30 08:16:34;;;;;;;;;;;20.30;48.70;;;;;;1525274;75;1152;-71
2024/03/30 08:18:35;;;;;;;;;;;20.30;48.40;;;;;;1520257;76;817;-64
2024/03/30 08:20:38;;;;;;;;;;;20.30;48.50;;;;;;1526459;76;756;-71
2024/03/30 08:22:41;;;;;;;;;;;20.30;48.40;;;;;;1529340;76;846;-69
2024/03/30 08:24:43;;;;;;;;;;;20.30;48.40;;;;;;1522921;76;1414;-73
2024/03/30 08:26:45;;;;;;;;;;;20.30;48.40;;;;;;1537277;76;1208;-70
2024/03/30 08:28:47;;;;;;;;;;;20.40;48.40;;;;;;1518115;77;637;-71
2024/03/30 08:30:49;;;;;;;;;;;20.30;48.50;;;;;;1526460;76;759;-71
2024/03/30 08:32:52;;;;;;;;;;;20.30;48.60;;;;;;1523126;77;685;-71
2024/03/30 08:34:54;;;;;;;;;;;20.30;48.70;;;;;;1523701;77;1897;-73
2024/03/30 08:36:56;;;;;;;;;;;20.30;48.70;;;;;;1523233;76;1146;-72
2024/03/30 08:38:57;;;;;;;;;;;20.40;48.60;;;;;;1521944;77;1470;-73
2024/03/30 08:40:59;;;;;;;;;;;20.40;48.30;;;;;;1516408;76;753;-71
2024/03/30 08:43:01;;;;;;;;;;;20.40;48.10;;;;;;1510903;77;680;-72
2024/03/30 08:45:03;;;;;;;;;;;20.30;47.50;;;;;;1518535;77;870;-72
2024/03/30 08:47:05;;;;;;;;;;;20.40;46.80;;;;;;1509299;77;1141;-71
2024/03/30 08:49:07;;;;;;;;;;;20.30;46.90;;;;;;1507950;77;746;-70
2024/03/30 08:51:09;;;;;;;;;;;20.30;47.00;;;;;;1524279;76;766;-71
2024/03/30 08:53:11;;;;;;;;;;;20.40;47.00;;;;;;1523953;76;1159;-71
2024/03/30 08:55:13;;;;;;;;;;;20.30;46.70;;;;;;1508801;76;1970;-69
2024/03/30 08:57:15;;;;;;;;;;;20.30;46.80;;;;;;1523213;77;1122;-72
2024/03/30 08:59:17;;;;;;;;;;;20.30;46.80;;;;;;1521398;77;804;-70
2024/03/30 09:01:19;;;;;;;;;;;20.40;45.20;;;;;;1519201;77;654;-71
2024/03/30 09:03:21;;;;;;;;;;;20.30;45.10;;;;;;1514677;76;686;-71
2024/03/30 09:05:23;;;;;;;;;;;20.30;44.00;;;;;;1520872;77;702;-71
2024/03/30 09:07:24;;;;;;;;;;;20.20;43.90;;;;;;1522964;76;1597;-70
2024/03/30 09:09:28;;;;;;;;;;;20.20;43.20;;;;;;1519622;76;670;-71
2024/03/30 09:11:29;;;;;;;;;;;20.20;43.40;;;;;;1522964;76;595;-71
2024/03/30 09:13:31;;;;;;;;;;;20.20;43.50;;;;;;1512020;76;1950;-71
2024/03/30 09:15:33;;;;;;;;;;;20.20;42.70;;;;;;1526558;76;1096;-72
2024/03/30 09:17:36;;;;;;;;;;;20.20;43.10;;;;;;1521449;76;708;-72
2024/03/30 09:19:38;;;;;;;;;;;20.30;43.50;;;;;;1524549;77;721;-72
2024/03/30 09:21:40;;;;;;;;;;;20.30;43.40;;;;;;1518141;77;1405;-72
2024/03/30 09:23:42;;;;;;;;;;;20.30;42.20;;;;;;1517322;76;675;-73
2024/03/30 09:25:44;;;;;;;;;;;20.20;42.40;;;;;;1526562;76;1204;-69
2024/03/30 09:27:46;;;;;;;;;;;20.30;42.30;;;;;;1511764;77;689;-75
2024/03/30 09:29:48;;;;;;;;;;;20.30;40.00;;;;;;1521759;76;742;-70
2024/03/30 09:31:50;;;;;;;;;;;20.20;41.20;;;;;;1524671;76;771;-74
2024/03/30 09:33:52;;;;;;;;;;;20.30;41.20;;;;;;1520015;77;1944;-71
2024/03/30 09:35:55;;;;;;;;;;;20.30;41.80;;;;;;1518277;76;1228;-75
2024/03/30 09:37:57;;;;;;;;;;;20.30;42.00;;;;;;1520450;76;778;-65
2024/03/30 09:39:59;;;;;;;;;;;20.30;41.80;;;;;;1526463;76;718;-71
2024/03/30 09:42:01;;;;;;;;;;;20.30;42.00;;;;;;1517826;76;693;-70
2024/03/30 09:44:06;;;;;;;;;;;20.30;42.00;;;;;;1513644;76;682;-70
2024/03/30 09:46:07;;;;;;;;;;;20.30;42.10;;;;;;1523004;77;1713;-70
2024/03/30 09:48:09;;;;;;;;;;;20.30;42.00;;;;;;1524662;76;663;-72
2024/03/30 09:50:10;;;;;;;;;;;20.40;42.00;;;;;;1522163;76;1458;-71
2024/03/30 09:52:12;;;;;;;;;;;20.40;41.90;;;;;;1515322;76;667;-72
2024/03/30 09:54:14;;;;;;;;;;;20.30;41.90;;;;;;1523666;77;1910;-72
2024/03/30 09:56:16;;;;;;;;;;;20.30;41.90;;;;;;1516354;76;1229;-71
2024/03/30 09:58:18;;;;;;;;;;;20.40;41.80;;;;;;1511874;76;722;-72
2024/03/30 10:00:20;;;;;;;;;;;20.30;41.80;;;;;;1520450;77;588;-72
2024/03/30 10:02:22;;;;;;;;;;;20.30;41.80;;;;;;1514014;76;740;-72
2024/03/30 10:04:24;;;;;;;;;;;20.30;41.60;;;;;;1518501;76;1579;-72
2024/03/30 10:06:34;;;;;;;;;;;20.30;41.50;;;;;;1511024;77;1127;-74
2024/03/30 10:08:36;;;;;;;;;;;20.20;41.50;;;;;;1527247;76;718;-72
2024/03/30 10:10:38;;;;;;;;;;;20.30;41.50;;;;;;1526945;76;659;-72
2024/03/30 10:12:44;;;;;;;;;;;20.30;41.40;;;;;;1532910;76;685;-72
2024/03/30 10:14:47;;;;;;;;;;;20.30;41.40;;;;;;1527039;76;2177;-73
2024/03/30 10:16:48;;;;;;;;;;;20.20;41.40;;;;;;1510864;77;1189;-73
2024/03/30 10:18:50;;;;;;;;;;;20.20;41.00;;;;;;1526262;76;1469;-68
2024/03/30 10:20:56;;;;;;;;;;;20.30;40.00;;;;;;1515666;76;654;-75
2024/03/30 10:22:58;;;;;;;;;;;20.20;40.00;;;;;;1517744;76;729;-74
2024/03/30 10:25:00;;;;;;;;;;;20.20;39.60;;;;;;1523479;76;702;-75
2024/03/30 10:27:02;;;;;;;;;;;20.20;37.60;;;;;;1527122;76;1192;-74
2024/03/30 10:29:05;;;;;;;;;;;20.20;38.10;;;;;;1519325;77;675;-74
2024/03/30 10:31:07;;;;;;;;;;;20.20;38.30;;;;;;1519722;76;1464;-74
2024/03/30 10:33:12;;;;;;;;;;;20.20;38.40;;;;;;1516341;76;776;-73
2024/03/30 10:35:14;;;;;;;;;;;20.20;38.50;;;;;;1518599;76;1940;-73
2024/03/30 10:37:36;;;;;;;;;;;20.30;37.80;;;;;;1516434;76;1178;-73
2024/03/30 10:39:37;;;;;;;;;;;20.20;37.40;;;;;;1532509;76;596;-73
2024/03/30 10:41:41;;;;;;;;;;;20.20;37.80;;;;;;1532063;76;1185;-73
2024/03/30 10:43:43;;;;;;;;;;;20.30;37.50;;;;;;1542504;76;728;-74
2024/03/30 10:45:46;;;;;;;;;;;20.10;35.70;;;;;;1538614;76;1607;-71
2024/03/30 10:47:48;;;;;;;;;;;20.20;35.80;;;;;;1608525;72;801;-74
2024/03/30 10:49:49;;;;;;;;;;;20.30;35.30;;;;;;1611165;73;661;-74
2024/03/30 10:51:54;;;;;;;;;;;20.20;35.30;;;;;;1616078;73;599;-73
2024/03/30 10:54:10;;;;;;;;;;;20.20;35.10;;;;;;1616146;72;677;-73
2024/03/30 10:56:12;;;;;;;;;;;20.20;35.60;;;;;;1613782;73;1807;-74
2024/03/30 10:58:14;;;;;;;;;;;20.20;36.10;;;;;;1603669;73;704;-75
2024/03/30 11:00:16;;;;;;;;;;;20.30;36.60;;;;;;1605857;73;1417;-73
2024/03/30 11:02:24;;;;;;;;;;;20.20;35.90;;;;;;1607060;72;716;-73
2024/03/30 11:04:26;;;;;;;;;;;20.20;36.30;;;;;;1614165;73;618;-74
2024/03/30 11:06:28;;;;;;;;;;;20.20;36.90;;;;;;1615273;72;1177;-71
2024/03/30 11:08:30;;;;;;;;;;;20.30;36.90;;;;;;1605470;73;728;-73
2024/03/30 11:10:32;;;;;;;;;;;20.30;37.30;;;;;;1601904;73;685;-73
2024/03/30 11:12:34;;;;;;;;;;;20.20;36.80;;;;;;1598747;72;771;-74
2024/03/30 11:14:36;;;;;;;;;;;20.30;36.00;;;;;;1602974;72;1941;-73
2024/03/30 11:16:38;;;;;;;;;;;20.20;33.40;;;;;;1604521;73;1148;-72
2024/03/30 11:18:41;;;;;;;;;;;20.20;35.30;;;;;;1607610;72;664;-74
2024/03/30 11:20:45;;;;;;;;;;;20.20;35.20;;;;;;1596692;72;1885;-75
2024/03/30 11:22:56;;;;;;;;;;;20.30;35.90;;;;;;1603159;73;702;-74
2024/03/30 11:25:00;;;;;;;;;;;20.20;35.50;;;;;;1607523;73;843;-76
2024/03/30 11:27:03;;;;;;;;;;;20.20;35.50;;;;;;1597443;72;1793;-74
2024/03/30 11:29:06;;;;;;;;;;;20.20;31.80;;;;;;1611872;73;1700;-74
2024/03/30 11:31:15;;;;;;;;;;;20.20;32.80;;;;;;1600843;72;1968;-73
2024/03/30 11:33:21;;;;;;;;;;;20.20;33.80;;;;;;1598959;72;1529;-74
2024/03/30 11:35:26;;;;;;;;;;;20.20;31.00;;;;;;1603935;72;1943;-74
2024/03/30 11:37:28;;;;;;;;;;;20.20;33.10;;;;;;1606956;72;1116;-73
2024/03/30 11:39:32;;;;;;;;;;;20.10;33.30;;;;;;1598637;72;725;-73
2024/03/30 11:41:34;;;;;;;;;;;20.10;32.50;;;;;;1608255;73;1799;-75
2024/03/30 11:43:56;;;;;;;;;;;20.20;33.30;;;;;;1609175;73;732;-73
2024/03/30 11:45:57;;;;;;;;;;;20.20;33.40;;;;;;1602175;72;1147;-74
2024/03/30 11:48:00;;;;;;;;;;;20.10;34.00;;;;;;1609508;72;580;-73
2024/03/30 11:50:02;;;;;;;;;;;20.20;34.40;;;;;;1611415;72;675;-73
2024/03/30 11:52:04;;;;;;;;;;;20.30;34.50;;;;;;1604185;73;640;-74
2024/03/30 11:54:21;;;;;;;;;;;20.30;34.70;;;;;;1619949;73;801;-74
2024/03/30 11:56:25;;;;;;;;;;;20.20;33.40;;;;;;1597515;72;1524;-74
2024/03/30 11:58:27;;;;;;;;;;;20.20;33.50;;;;;;1604469;73;1712;-75
2024/03/30 12:00:30;;;;;;;;;;;20.30;34.20;;;;;;1609213;73;777;-74
2024/03/30 12:02:32;;;;;;;;;;;20.20;32.10;;;;;;1598625;72;880;-74
2024/03/30 12:04:38;;;;;;;;;;;20.20;33.40;;;;;;1605333;72;688;-73
2024/03/30 12:06:39;;;;;;;;;;;20.20;33.80;;;;;;1611379;72;1497;-73
2024/03/30 12:08:42;;;;;;;;;;;20.20;33.10;;;;;;1583217;74;720;-74
2024/03/30 12:10:53;;;;;;;;;;;20.30;33.40;;;;;;1604945;72;1558;-74
2024/03/30 12:12:58;;;;;;;;;;;20.30;33.80;;;;;;1597616;73;717;-69
2024/03/30 12:15:00;;;;;;;;;;;20.30;33.80;;;;;;1598858;73;1916;-73